createdAt,value
2018-06-01T00:00:05.628Z,975.91
2018-06-01T00:01:05.574Z,976.03
2018-06-01T00:02:05.111Z,976.08
2018-06-01T00:03:05.353Z,976.08
2018-06-01T00:04:05.654Z,975.97
2018-06-01T00:05:05.090Z,975.94
2018-06-01T00:06:05.718Z,976.03
2018-06-01T00:07:06.754Z,975.88
2018-06-01T00:08:06.008Z,976.06
2018-06-01T00:09:05.828Z,975.97
2018-06-01T00:10:05.486Z,976.03
2018-06-01T00:11:05.437Z,975.91
2018-06-01T00:12:05.285Z,976.06
2018-06-01T00:13:05.505Z,975.89
2018-06-01T00:14:05.368Z,975.83
2018-06-01T00:15:05.290Z,975.92
2018-06-01T00:16:05.624Z,975.97
2018-06-01T00:17:05.272Z,975.92
2018-06-01T00:18:05.496Z,976.01
2018-06-01T00:19:05.909Z,975.89
2018-06-01T00:20:05.373Z,975.89
2018-06-01T00:21:05.421Z,976.01
2018-06-01T00:22:05.404Z,975.92
2018-06-01T00:23:05.901Z,975.81
2018-06-01T00:24:06.008Z,975.81
2018-06-01T00:25:11.737Z,975.84
2018-06-01T00:26:06.228Z,975.81
2018-06-01T00:27:05.447Z,975.78
2018-06-01T00:28:05.135Z,975.78
2018-06-01T00:29:05.472Z,975.81
2018-06-01T00:30:05.640Z,975.81
2018-06-01T00:31:05.517Z,975.81
2018-06-01T00:32:05.487Z,975.87
2018-06-01T00:33:06.149Z,975.87
2018-06-01T00:34:05.118Z,975.90
2018-06-01T00:35:05.907Z,975.96
2018-06-01T00:36:06.142Z,975.99
2018-06-01T00:37:05.986Z,976.02
2018-06-01T00:38:05.527Z,976.02
2018-06-01T00:39:05.307Z,975.90
2018-06-01T00:40:05.183Z,975.99
2018-06-01T00:41:05.750Z,976.02
2018-06-01T00:42:05.681Z,975.99
2018-06-01T00:43:05.083Z,975.99
2018-06-01T00:44:05.885Z,975.96
2018-06-01T00:45:10.852Z,976.11
2018-06-01T00:46:06.008Z,976.02
2018-06-01T00:47:05.287Z,976.14
2018-06-01T00:48:05.775Z,976.08
2018-06-01T00:49:05.943Z,976.17
2018-06-01T00:50:05.422Z,976.14
2018-06-01T00:51:05.606Z,976.17
2018-06-01T00:52:05.313Z,976.20
2018-06-01T00:53:05.111Z,976.31
2018-06-01T00:54:05.403Z,976.17
2018-06-01T00:55:11.253Z,976.31
2018-06-01T00:56:05.079Z,976.17
2018-06-01T00:57:05.764Z,976.26
2018-06-01T00:58:05.921Z,976.32
2018-06-01T00:59:05.362Z,976.14
2018-06-01T01:00:05.142Z,976.34
2018-06-01T01:01:05.708Z,976.29
2018-06-01T01:02:05.326Z,976.29
2018-06-01T01:03:05.797Z,976.29
2018-06-01T01:04:05.784Z,976.32
2018-06-01T01:05:05.597Z,976.15
2018-06-01T01:06:05.143Z,976.23
2018-06-01T01:07:05.376Z,976.23
2018-06-01T01:08:11.961Z,976.26
2018-06-01T01:09:06.030Z,976.26
2018-06-01T01:10:05.844Z,976.21
2018-06-01T01:11:05.935Z,976.21
2018-06-01T01:12:05.781Z,976.32
2018-06-01T01:13:05.354Z,976.35
2018-06-01T01:14:05.336Z,976.21
2018-06-01T01:15:05.163Z,976.41
2018-06-01T01:16:05.861Z,976.21
2018-06-01T01:17:06.295Z,976.27
2018-06-01T01:18:05.530Z,976.27
2018-06-01T01:19:05.258Z,976.09
2018-06-01T01:20:05.899Z,976.12
2018-06-01T01:21:05.948Z,976.27
2018-06-01T01:22:05.949Z,976.21
2018-06-01T01:23:05.074Z,976.21
2018-06-01T01:24:10.095Z,976.18
2018-06-01T01:25:05.890Z,976.09
2018-06-01T01:26:05.580Z,976.18
2018-06-01T01:27:05.712Z,976.12
2018-06-01T01:28:05.784Z,976.18
2018-06-01T01:29:05.895Z,976.21
2018-06-01T01:30:05.780Z,976.21
2018-06-01T01:31:06.254Z,976.15
2018-06-01T01:32:05.297Z,976.24
2018-06-01T01:33:05.691Z,976.27
2018-06-01T01:34:05.419Z,976.21
2018-06-01T01:35:05.958Z,976.27
2018-06-01T01:36:05.524Z,976.32
2018-06-01T01:37:05.624Z,976.18
2018-06-01T01:38:05.480Z,976.24
2018-06-01T01:39:05.293Z,976.21
2018-06-01T01:40:05.899Z,976.26
2018-06-01T01:41:05.533Z,976.21
2018-06-01T01:42:06.026Z,976.12
2018-06-01T01:43:05.694Z,976.15
2018-06-01T01:44:05.638Z,976.15
2018-06-01T01:45:05.659Z,976.18
2018-06-01T01:46:05.374Z,976.15
2018-06-01T01:47:10.820Z,976.17
2018-06-01T01:48:05.653Z,976.12
2018-06-01T01:49:05.396Z,976.12
2018-06-01T01:50:05.549Z,976.09
2018-06-01T01:51:05.378Z,976.06
2018-06-01T01:52:05.128Z,976.09
2018-06-01T01:53:05.916Z,976.00
2018-06-01T01:54:05.850Z,975.94
2018-06-01T01:55:05.427Z,976.15
2018-06-01T01:56:07.037Z,976.06
2018-06-01T01:57:05.088Z,975.89
2018-06-01T01:58:05.072Z,975.95
2018-06-01T01:59:05.153Z,975.95
2018-06-01T02:00:05.249Z,976.03
2018-06-01T02:01:05.126Z,976.00
2018-06-01T02:02:05.364Z,976.18
2018-06-01T02:03:05.494Z,976.03
2018-06-01T02:04:05.226Z,976.03
2018-06-01T02:05:05.636Z,976.09
2018-06-01T02:06:05.215Z,976.06
2018-06-01T02:07:05.380Z,976.09
2018-06-01T02:08:06.010Z,976.12
2018-06-01T02:09:05.581Z,976.18
2018-06-01T02:10:05.187Z,976.21
2018-06-01T02:11:05.234Z,976.21
2018-06-01T02:12:05.150Z,976.21
2018-06-01T02:13:05.452Z,976.12
2018-06-01T02:14:10.484Z,976.09
2018-06-01T02:15:05.707Z,976.17
2018-06-01T02:16:05.362Z,976.17
2018-06-01T02:17:05.319Z,976.12
2018-06-01T02:18:05.094Z,976.14
2018-06-01T02:19:06.598Z,976.20
2018-06-01T02:20:05.716Z,976.23
2018-06-01T02:21:05.588Z,976.26
2018-06-01T02:22:05.628Z,976.23
2018-06-01T02:23:05.121Z,976.20
2018-06-01T02:24:05.745Z,976.38
2018-06-01T02:25:05.902Z,976.32
2018-06-01T02:26:05.076Z,976.32
2018-06-01T02:27:06.338Z,976.26
2018-06-01T02:28:06.123Z,976.47
2018-06-01T02:29:07.368Z,976.38
2018-06-01T02:30:05.660Z,976.49
2018-06-01T02:31:05.766Z,976.64
2018-06-01T02:32:05.749Z,976.52
2018-06-01T02:33:05.581Z,976.49
2018-06-01T02:34:06.759Z,976.64
2018-06-01T02:35:05.759Z,976.61
2018-06-01T02:36:05.559Z,976.64
2018-06-01T02:37:05.505Z,976.50
2018-06-01T02:38:05.344Z,976.61
2018-06-01T02:39:05.695Z,976.58
2018-06-01T02:40:05.615Z,976.67
2018-06-01T02:41:05.562Z,976.67
2018-06-01T02:42:05.931Z,976.89
2018-06-01T02:43:05.197Z,976.73
2018-06-01T02:44:05.108Z,976.64
2018-06-01T02:45:05.111Z,976.89
2018-06-01T02:46:05.066Z,976.78
2018-06-01T02:47:06.048Z,976.78
2018-06-01T02:48:05.829Z,976.64
2018-06-01T02:49:05.722Z,976.70
2018-06-01T02:50:10.404Z,976.64
2018-06-01T02:51:05.723Z,976.81
2018-06-01T02:52:05.185Z,976.95
2018-06-01T02:53:05.157Z,976.84
2018-06-01T02:54:05.876Z,976.90
2018-06-01T02:55:05.543Z,976.70
2018-06-01T02:56:06.168Z,976.98
2018-06-01T02:57:05.777Z,976.90
2018-06-01T02:58:05.260Z,977.01
2018-06-01T02:59:05.952Z,976.78
2018-06-01T03:00:05.959Z,976.87
2018-06-01T03:01:06.104Z,976.73
2018-06-01T03:02:05.966Z,976.78
2018-06-01T03:03:05.930Z,976.75
2018-06-01T03:04:05.621Z,976.68
2018-06-01T03:05:05.279Z,976.65
2018-06-01T03:06:05.842Z,976.68
2018-06-01T03:07:06.056Z,976.74
2018-06-01T03:08:05.633Z,976.68
2018-06-01T03:09:05.596Z,976.68
2018-06-01T03:10:05.997Z,976.74
2018-06-01T03:11:06.046Z,976.71
2018-06-01T03:12:05.073Z,976.82
2018-06-01T03:13:05.173Z,976.74
2018-06-01T03:14:04.982Z,976.74
2018-06-01T03:15:06.243Z,976.88
2018-06-01T03:16:05.368Z,976.91
2018-06-01T03:17:05.638Z,976.91
2018-06-01T03:18:05.292Z,976.85
2018-06-01T03:19:05.876Z,976.94
2018-06-01T03:20:05.890Z,976.97
2018-06-01T03:21:05.006Z,977.02
2018-06-01T03:22:05.054Z,977.05
2018-06-01T03:23:06.360Z,977.14
2018-06-01T03:24:05.422Z,977.14
2018-06-01T03:25:05.592Z,977.08
2018-06-01T03:26:06.409Z,977.17
2018-06-01T03:27:05.520Z,977.25
2018-06-01T03:28:05.751Z,977.17
2018-06-01T03:29:05.237Z,977.23
2018-06-01T03:30:05.723Z,977.31
2018-06-01T03:31:06.284Z,977.25
2018-06-01T03:32:06.025Z,977.22
2018-06-01T03:33:05.554Z,977.22
2018-06-01T03:34:05.721Z,977.34
2018-06-01T03:35:05.379Z,977.37
2018-06-01T03:36:05.757Z,977.34
2018-06-01T03:37:05.764Z,977.34
2018-06-01T03:38:05.569Z,977.25
2018-06-01T03:39:05.252Z,977.33
2018-06-01T03:40:05.989Z,977.33
2018-06-01T03:41:05.465Z,977.19
2018-06-01T03:42:05.206Z,977.10
2018-06-01T03:43:05.427Z,977.13
2018-06-01T03:44:05.572Z,977.13
2018-06-01T03:45:05.837Z,977.13
2018-06-01T03:46:05.871Z,977.13
2018-06-01T03:47:05.891Z,977.19
2018-06-01T03:48:05.881Z,977.30
2018-06-01T03:49:05.785Z,977.30
2018-06-01T03:50:06.211Z,977.30
2018-06-01T03:51:06.122Z,977.42
2018-06-01T03:52:05.679Z,977.27
2018-06-01T03:53:06.060Z,977.33
2018-06-01T03:54:05.941Z,977.53
2018-06-01T03:55:05.790Z,977.33
2018-06-01T03:56:05.459Z,977.56
2018-06-01T03:57:05.296Z,977.27
2018-06-01T03:58:10.741Z,977.30
2018-06-01T03:59:05.529Z,977.53
2018-06-01T04:00:05.257Z,977.30
2018-06-01T04:01:05.553Z,977.47
2018-06-01T04:02:05.454Z,977.35
2018-06-01T04:03:05.364Z,977.50
2018-06-01T04:04:05.634Z,977.50
2018-06-01T04:05:05.664Z,977.41
2018-06-01T04:06:06.300Z,977.47
2018-06-01T04:07:05.438Z,977.50
2018-06-01T04:08:05.947Z,977.55
2018-06-01T04:09:05.466Z,977.38
2018-06-01T04:10:05.696Z,977.52
2018-06-01T04:11:05.536Z,977.69
2018-06-01T04:12:05.713Z,977.61
2018-06-01T04:13:10.372Z,977.52
2018-06-01T04:14:06.643Z,977.49
2018-06-01T04:15:05.720Z,977.66
2018-06-01T04:16:15.426Z,977.58
2018-06-01T04:17:05.873Z,977.55
2018-06-01T04:18:05.992Z,977.58
2018-06-01T04:19:05.052Z,977.69
2018-06-01T04:20:05.142Z,977.46
2018-06-01T04:21:05.243Z,977.58
2018-06-01T04:22:06.043Z,977.74
2018-06-01T04:23:05.665Z,977.49
2018-06-01T04:24:05.163Z,977.55
2018-06-01T04:25:06.096Z,977.55
2018-06-01T04:26:06.017Z,977.69
2018-06-01T04:27:05.031Z,977.41
2018-06-01T04:28:05.054Z,977.44
2018-06-01T04:29:05.418Z,977.38
2018-06-01T04:30:06.340Z,977.47
2018-06-01T04:31:06.996Z,977.38
2018-06-01T04:32:05.673Z,977.41
2018-06-01T04:33:05.645Z,977.35
2018-06-01T04:34:05.875Z,977.24
2018-06-01T04:35:05.918Z,977.26
2018-06-01T04:36:05.745Z,977.18
2018-06-01T04:37:05.613Z,977.24
2018-06-01T04:38:05.385Z,977.12
2018-06-01T04:39:05.526Z,977.15
2018-06-01T04:40:05.211Z,977.09
2018-06-01T04:41:05.917Z,977.29
2018-06-01T04:42:05.623Z,977.29
2018-06-01T04:43:05.741Z,977.18
2018-06-01T04:44:05.095Z,977.18
2018-06-01T04:45:05.835Z,977.35
2018-06-01T04:46:05.503Z,977.26
2018-06-01T04:47:06.372Z,977.35
2018-06-01T04:48:05.083Z,977.50
2018-06-01T04:49:10.317Z,977.32
2018-06-01T04:50:10.370Z,977.26
2018-06-01T04:51:05.206Z,977.32
2018-06-01T04:52:05.243Z,977.38
2018-06-01T04:53:06.018Z,977.50
2018-06-01T04:54:05.808Z,977.35
2018-06-01T04:55:05.223Z,977.55
2018-06-01T04:56:05.853Z,977.66
2018-06-01T04:57:05.848Z,977.66
2018-06-01T04:58:10.543Z,977.66
2018-06-01T04:59:05.375Z,977.75
2018-06-01T05:00:05.684Z,977.72
2018-06-01T05:01:05.169Z,977.59
2018-06-01T05:02:05.206Z,977.62
2018-06-01T05:03:05.881Z,977.42
2018-06-01T05:04:06.041Z,977.45
2018-06-01T05:05:05.294Z,977.45
2018-06-01T05:06:05.358Z,977.39
2018-06-01T05:07:05.884Z,977.48
2018-06-01T05:08:05.914Z,977.45
2018-06-01T05:09:05.069Z,977.56
2018-06-01T05:10:08.949Z,977.70
2018-06-01T05:11:05.654Z,977.62
2018-06-01T05:12:05.145Z,977.67
2018-06-01T05:13:05.162Z,977.73
2018-06-01T05:14:05.299Z,977.75
2018-06-01T05:15:05.378Z,977.81
2018-06-01T05:16:05.395Z,977.78
2018-06-01T05:17:05.903Z,977.78
2018-06-01T05:18:05.300Z,977.72
2018-06-01T05:19:10.513Z,977.87
2018-06-01T05:20:05.120Z,977.67
2018-06-01T05:21:05.740Z,977.66
2018-06-01T05:22:05.837Z,977.69
2018-06-01T05:23:06.216Z,977.56
2018-06-01T05:24:05.298Z,977.47
2018-06-01T05:25:10.823Z,977.44
2018-06-01T05:26:05.643Z,977.32
2018-06-01T05:27:05.480Z,977.35
2018-06-01T05:28:05.365Z,977.35
2018-06-01T05:29:05.105Z,977.35
2018-06-01T05:30:05.709Z,977.41
2018-06-01T05:31:05.153Z,977.41
2018-06-01T05:32:05.606Z,977.41
2018-06-01T05:33:05.218Z,977.58
2018-06-01T05:34:05.396Z,977.52
2018-06-01T05:35:05.127Z,977.58
2018-06-01T05:36:05.058Z,977.44
2018-06-01T05:37:05.120Z,977.44
2018-06-01T05:38:06.045Z,977.49
2018-06-01T05:39:05.169Z,977.26
2018-06-01T05:40:05.316Z,977.52
2018-06-01T05:41:05.302Z,977.52
2018-06-01T05:42:05.262Z,977.58
2018-06-01T05:43:05.455Z,977.55
2018-06-01T05:44:05.341Z,977.72
2018-06-01T05:45:05.260Z,977.72
2018-06-01T05:46:05.093Z,977.58
2018-06-01T05:47:05.795Z,977.55
2018-06-01T05:48:05.771Z,977.66
2018-06-01T05:49:06.087Z,977.50
2018-06-01T05:50:05.873Z,977.52
2018-06-01T05:51:05.536Z,977.35
2018-06-01T05:52:05.189Z,977.38
2018-06-01T05:53:06.168Z,977.44
2018-06-01T05:54:05.496Z,977.44
2018-06-01T05:55:05.681Z,977.41
2018-06-01T05:56:05.099Z,977.41
2018-06-01T05:57:05.205Z,977.47
2018-06-01T05:58:05.875Z,977.44
2018-06-01T05:59:05.879Z,977.52
2018-06-01T06:00:05.390Z,977.66
2018-06-01T06:01:05.941Z,977.61
2018-06-01T06:02:06.906Z,977.69
2018-06-01T06:03:05.837Z,977.61
2018-06-01T06:04:06.002Z,977.72
2018-06-01T06:05:05.505Z,977.72
2018-06-01T06:06:05.476Z,977.87
2018-06-01T06:07:05.371Z,977.84
2018-06-01T06:08:05.347Z,977.81
2018-06-01T06:09:05.231Z,977.72
2018-06-01T06:10:05.319Z,977.78
2018-06-01T06:11:06.145Z,977.98
2018-06-01T06:12:05.129Z,977.84
2018-06-01T06:13:05.659Z,978.07
2018-06-01T06:14:05.834Z,977.93
2018-06-01T06:15:05.766Z,977.93
2018-06-01T06:16:05.838Z,977.90
2018-06-01T06:17:05.821Z,977.84
2018-06-01T06:18:05.590Z,978.04
2018-06-01T06:19:05.468Z,978.01
2018-06-01T06:20:05.513Z,978.10
2018-06-01T06:21:05.756Z,978.01
2018-06-01T06:22:05.777Z,977.95
2018-06-01T06:23:05.803Z,978.04
2018-06-01T06:24:05.888Z,977.95
2018-06-01T06:25:05.819Z,977.95
2018-06-01T06:26:05.643Z,977.93
2018-06-01T06:27:05.509Z,977.87
2018-06-01T06:28:05.987Z,977.87
2018-06-01T06:29:10.569Z,977.84
2018-06-01T06:30:05.256Z,977.72
2018-06-01T06:31:05.476Z,977.78
2018-06-01T06:32:05.770Z,977.72
2018-06-01T06:33:05.416Z,977.75
2018-06-01T06:34:05.721Z,977.67
2018-06-01T06:35:05.334Z,977.75
2018-06-01T06:36:06.026Z,977.78
2018-06-01T06:37:06.111Z,977.75
2018-06-01T06:38:05.633Z,977.78
2018-06-01T06:39:06.053Z,977.87
2018-06-01T06:40:05.563Z,977.81
2018-06-01T06:41:10.196Z,977.81
2018-06-01T06:42:05.125Z,977.84
2018-06-01T06:43:05.293Z,977.99
2018-06-01T06:44:05.160Z,977.93
2018-06-01T06:45:06.405Z,977.90
2018-06-01T06:46:05.985Z,978.10
2018-06-01T06:47:06.072Z,977.99
2018-06-01T06:48:05.672Z,977.96
2018-06-01T06:49:05.978Z,978.07
2018-06-01T06:50:05.652Z,978.05
2018-06-01T06:51:05.674Z,978.16
2018-06-01T06:52:05.735Z,978.05
2018-06-01T06:53:05.201Z,978.08
2018-06-01T06:54:05.277Z,978.31
2018-06-01T06:55:04.976Z,978.22
2018-06-01T06:56:06.418Z,978.13
2018-06-01T06:57:06.293Z,978.07
2018-06-01T06:58:05.801Z,978.10
2018-06-01T06:59:05.525Z,978.13
2018-06-01T07:00:05.637Z,978.07
2018-06-01T07:01:05.079Z,978.07
2018-06-01T07:02:05.117Z,978.22
2018-06-01T07:03:05.078Z,978.19
2018-06-01T07:04:05.889Z,978.30
2018-06-01T07:05:06.763Z,978.18
2018-06-01T07:06:05.665Z,978.24
2018-06-01T07:07:06.032Z,978.15
2018-06-01T07:08:06.003Z,978.18
2018-06-01T07:09:05.656Z,978.32
2018-06-01T07:10:05.763Z,978.26
2018-06-01T07:11:05.884Z,978.20
2018-06-01T07:12:05.945Z,978.20
2018-06-01T07:13:05.507Z,978.17
2018-06-01T07:14:05.631Z,978.17
2018-06-01T07:15:05.359Z,978.20
2018-06-01T07:16:05.383Z,978.08
2018-06-01T07:17:05.323Z,978.17
2018-06-01T07:18:04.913Z,978.14
2018-06-01T07:19:05.109Z,978.11
2018-06-01T07:20:06.101Z,978.08
2018-06-01T07:21:05.408Z,978.13
2018-06-01T07:22:05.077Z,978.19
2018-06-01T07:23:05.991Z,978.22
2018-06-01T07:24:06.216Z,978.19
2018-06-01T07:25:05.322Z,978.07
2018-06-01T07:26:05.389Z,978.09
2018-06-01T07:27:05.880Z,978.06
2018-06-01T07:28:05.585Z,978.09
2018-06-01T07:29:05.635Z,978.09
2018-06-01T07:30:05.102Z,978.11
2018-06-01T07:31:05.504Z,977.99
2018-06-01T07:32:05.434Z,978.05
2018-06-01T07:33:05.462Z,977.96
2018-06-01T07:34:05.193Z,977.95
2018-06-01T07:35:05.955Z,977.92
2018-06-01T07:36:05.611Z,977.92
2018-06-01T07:37:05.741Z,977.95
2018-06-01T07:38:05.794Z,977.91
2018-06-01T07:39:07.121Z,977.94
2018-06-01T07:40:05.180Z,978.06
2018-06-01T07:41:05.194Z,978.00
2018-06-01T07:42:05.397Z,978.05
2018-06-01T07:43:05.413Z,977.99
2018-06-01T07:44:06.525Z,977.96
2018-06-01T07:45:05.216Z,978.11
2018-06-01T07:46:05.843Z,978.11
2018-06-01T07:47:05.864Z,978.02
2018-06-01T07:48:05.341Z,978.02
2018-06-01T07:49:05.150Z,978.13
2018-06-01T07:50:05.497Z,978.04
2018-06-01T07:51:06.097Z,978.13
2018-06-01T07:52:06.110Z,978.07
2018-06-01T07:53:06.456Z,978.15
2018-06-01T07:54:05.398Z,978.03
2018-06-01T07:55:05.562Z,977.97
2018-06-01T07:56:05.977Z,978.20
2018-06-01T07:57:05.959Z,978.11
2018-06-01T07:58:05.093Z,978.14
2018-06-01T07:59:05.882Z,978.19
2018-06-01T08:00:05.581Z,978.02
2018-06-01T08:01:05.395Z,978.13
2018-06-01T08:02:05.528Z,978.01
2018-06-01T08:03:05.900Z,978.09
2018-06-01T08:04:05.638Z,978.15
2018-06-01T08:05:05.888Z,977.97
2018-06-01T08:06:05.717Z,978.11
2018-06-01T08:07:05.843Z,978.08
2018-06-01T08:08:05.836Z,978.02
2018-06-01T08:09:05.511Z,977.90
2018-06-01T08:10:05.082Z,978.07
2018-06-01T08:11:05.466Z,977.92
2018-06-01T08:12:10.421Z,977.94
2018-06-01T08:13:05.403Z,977.94
2018-06-01T08:14:10.062Z,978.02
2018-06-01T08:15:05.901Z,977.96
2018-06-01T08:16:05.173Z,977.93
2018-06-01T08:17:05.787Z,977.90
2018-06-01T08:18:05.885Z,977.81
2018-06-01T08:19:06.116Z,977.92
2018-06-01T08:20:05.637Z,977.80
2018-06-01T08:21:05.315Z,977.86
2018-06-01T08:22:05.406Z,977.86
2018-06-01T08:23:05.043Z,977.89
2018-06-01T08:24:05.727Z,977.80
2018-06-01T08:25:05.330Z,977.91
2018-06-01T08:26:05.437Z,977.91
2018-06-01T08:27:05.990Z,977.94
2018-06-01T08:28:05.688Z,977.79
2018-06-01T08:29:05.646Z,977.85
2018-06-01T08:30:05.306Z,977.91
2018-06-01T08:31:05.878Z,977.99
2018-06-01T08:32:05.640Z,977.90
2018-06-01T08:33:05.147Z,977.85
2018-06-01T08:34:05.187Z,977.84
2018-06-01T08:35:05.562Z,977.90
2018-06-01T08:36:05.907Z,977.93
2018-06-01T08:37:05.569Z,977.90
2018-06-01T08:38:05.077Z,978.02
2018-06-01T08:39:05.737Z,977.99
2018-06-01T08:40:05.877Z,978.10
2018-06-01T08:41:05.444Z,978.05
2018-06-01T08:42:05.181Z,978.10
2018-06-01T08:43:05.137Z,977.96
2018-06-01T08:44:06.059Z,977.99
2018-06-01T08:45:04.997Z,977.93
2018-06-01T08:46:05.754Z,978.17
2018-06-01T08:47:05.410Z,978.17
2018-06-01T08:48:05.591Z,978.05
2018-06-01T08:49:05.073Z,977.99
2018-06-01T08:50:05.641Z,978.11
2018-06-01T08:51:05.961Z,978.17
2018-06-01T08:52:05.727Z,978.19
2018-06-01T08:53:05.863Z,978.20
2018-06-01T08:54:05.090Z,978.17
2018-06-01T08:55:05.060Z,978.14
2018-06-01T08:56:05.716Z,978.14
2018-06-01T08:57:05.821Z,978.14
2018-06-01T08:58:06.776Z,978.20
2018-06-01T08:59:05.974Z,978.14
2018-06-01T09:00:05.275Z,978.20
2018-06-01T09:01:05.831Z,978.31
2018-06-01T09:02:05.539Z,978.26
2018-06-01T09:03:05.013Z,978.38
2018-06-01T09:04:05.085Z,978.38
2018-06-01T09:05:05.998Z,978.49
2018-06-01T09:06:06.484Z,978.38
2018-06-01T09:07:05.857Z,978.27
2018-06-01T09:08:05.556Z,978.36
2018-06-01T09:09:05.416Z,978.36
2018-06-01T09:10:05.616Z,978.21
2018-06-01T09:11:05.296Z,978.30
2018-06-01T09:12:05.327Z,978.25
2018-06-01T09:13:05.715Z,978.31
2018-06-01T09:14:06.706Z,978.25
2018-06-01T09:15:06.287Z,978.34
2018-06-01T09:16:05.523Z,978.25
2018-06-01T09:17:05.479Z,978.34
2018-06-01T09:18:05.810Z,978.34
2018-06-01T09:19:05.067Z,978.34
2018-06-01T09:20:05.912Z,978.28
2018-06-01T09:21:05.923Z,978.34
2018-06-01T09:22:06.268Z,978.25
2018-06-01T09:23:05.036Z,978.22
2018-06-01T09:24:06.205Z,978.25
2018-06-01T09:25:05.878Z,978.19
2018-06-01T09:26:05.935Z,978.18
2018-06-01T09:27:10.979Z,978.18
2018-06-01T09:28:05.619Z,978.18
2018-06-01T09:29:10.343Z,978.14
2018-06-01T09:30:05.298Z,978.22
2018-06-01T09:31:05.937Z,978.25
2018-06-01T09:32:05.518Z,978.21
2018-06-01T09:33:05.242Z,978.12
2018-06-01T09:34:05.231Z,978.12
2018-06-01T09:35:05.661Z,978.26
2018-06-01T09:36:05.230Z,978.25
2018-06-01T09:37:05.789Z,978.10
2018-06-01T09:38:05.651Z,978.07
2018-06-01T09:39:05.658Z,978.13
2018-06-01T09:40:05.955Z,978.12
2018-06-01T09:41:05.056Z,978.18
2018-06-01T09:42:05.268Z,978.12
2018-06-01T09:43:06.227Z,978.15
2018-06-01T09:44:05.821Z,978.15
2018-06-01T09:45:05.145Z,978.20
2018-06-01T09:46:06.079Z,978.11
2018-06-01T09:47:05.997Z,978.11
2018-06-01T09:48:05.660Z,978.19
2018-06-01T09:49:05.284Z,978.07
2018-06-01T09:50:05.367Z,978.13
2018-06-01T09:51:05.597Z,978.10
2018-06-01T09:52:06.661Z,978.01
2018-06-01T09:53:05.716Z,978.09
2018-06-01T09:54:05.550Z,978.09
2018-06-01T09:55:05.946Z,978.03
2018-06-01T09:56:05.333Z,978.11
2018-06-01T09:57:05.446Z,978.02
2018-06-01T09:58:05.199Z,978.05
2018-06-01T09:59:05.490Z,978.14
2018-06-01T10:00:06.384Z,978.17
2018-06-01T10:01:06.102Z,978.11
2018-06-01T10:02:05.870Z,977.99
2018-06-01T10:03:05.439Z,978.11
2018-06-01T10:04:06.272Z,978.11
2018-06-01T10:05:05.822Z,977.96
2018-06-01T10:06:05.855Z,977.93
2018-06-01T10:07:05.116Z,978.13
2018-06-01T10:08:05.016Z,978.02
2018-06-01T10:09:05.261Z,978.07
2018-06-01T10:10:10.549Z,978.05
2018-06-01T10:11:05.455Z,977.99
2018-06-01T10:12:05.503Z,978.04
2018-06-01T10:13:05.384Z,978.07
2018-06-01T10:14:05.118Z,978.05
2018-06-01T10:15:05.933Z,978.02
2018-06-01T10:16:05.729Z,977.96
2018-06-01T10:17:05.942Z,977.98
2018-06-01T10:18:05.930Z,978.10
2018-06-01T10:19:05.656Z,978.10
2018-06-01T10:20:05.281Z,977.93
2018-06-01T10:21:05.736Z,978.10
2018-06-01T10:22:05.607Z,978.16
2018-06-01T10:23:05.605Z,978.07
2018-06-01T10:24:05.367Z,978.10
2018-06-01T10:25:05.168Z,978.04
2018-06-01T10:26:05.367Z,978.04
2018-06-01T10:27:05.528Z,978.10
2018-06-01T10:28:05.805Z,977.98
2018-06-01T10:29:06.115Z,978.01
2018-06-01T10:30:05.581Z,978.01
2018-06-01T10:31:05.306Z,978.12
2018-06-01T10:32:05.571Z,978.03
2018-06-01T10:33:05.834Z,978.03
2018-06-01T10:34:06.031Z,977.97
2018-06-01T10:35:05.047Z,977.98
2018-06-01T10:36:05.162Z,978.00
2018-06-01T10:37:05.086Z,978.09
2018-06-01T10:38:06.235Z,978.03
2018-06-01T10:39:05.675Z,978.12
2018-06-01T10:40:05.303Z,978.00
2018-06-01T10:41:05.918Z,978.09
2018-06-01T10:42:05.848Z,978.06
2018-06-01T10:43:05.648Z,977.97
2018-06-01T10:44:05.411Z,978.00
2018-06-01T10:45:05.101Z,977.94
2018-06-01T10:46:05.529Z,978.00
2018-06-01T10:47:05.224Z,977.94
2018-06-01T10:48:05.803Z,977.88
2018-06-01T10:49:10.742Z,977.88
2018-06-01T10:50:05.586Z,977.97
2018-06-01T10:51:05.760Z,977.76
2018-06-01T10:52:05.452Z,977.96
2018-06-01T10:53:05.265Z,978.02
2018-06-01T10:54:05.866Z,977.87
2018-06-01T10:55:06.131Z,977.81
2018-06-01T10:56:05.717Z,977.90
2018-06-01T10:57:05.427Z,977.93
2018-06-01T10:58:05.255Z,977.96
2018-06-01T10:59:04.987Z,977.84
2018-06-01T11:00:05.545Z,977.86
2018-06-01T11:01:05.072Z,977.80
2018-06-01T11:02:05.126Z,977.92
2018-06-01T11:03:05.841Z,977.80
2018-06-01T11:04:06.214Z,977.83
2018-06-01T11:05:06.152Z,977.91
2018-06-01T11:06:05.087Z,977.80
2018-06-01T11:07:05.625Z,977.79
2018-06-01T11:08:05.351Z,977.73
2018-06-01T11:09:05.415Z,977.67
2018-06-01T11:10:05.108Z,977.82
2018-06-01T11:11:05.250Z,977.70
2018-06-01T11:12:05.446Z,977.79
2018-06-01T11:13:05.391Z,977.79
2018-06-01T11:14:05.369Z,977.79
2018-06-01T11:15:05.306Z,977.73
2018-06-01T11:16:05.783Z,977.78
2018-06-01T11:17:05.754Z,977.70
2018-06-01T11:18:05.696Z,977.73
2018-06-01T11:19:05.218Z,977.67
2018-06-01T11:20:05.174Z,977.59
2018-06-01T11:21:05.341Z,977.69
2018-06-01T11:22:10.811Z,977.58
2018-06-01T11:23:06.356Z,977.81
2018-06-01T11:24:06.208Z,977.75
2018-06-01T11:25:05.747Z,977.90
2018-06-01T11:26:05.956Z,977.72
2018-06-01T11:27:05.455Z,977.81
2018-06-01T11:28:05.917Z,977.72
2018-06-01T11:29:05.268Z,977.72
2018-06-01T11:30:05.234Z,977.75
2018-06-01T11:31:05.838Z,977.77
2018-06-01T11:32:05.546Z,977.86
2018-06-01T11:33:05.519Z,977.83
2018-06-01T11:34:05.570Z,977.77
2018-06-01T11:35:05.218Z,977.80
2018-06-01T11:36:05.913Z,977.80
2018-06-01T11:37:05.574Z,977.77
2018-06-01T11:38:05.659Z,977.77
2018-06-01T11:39:05.947Z,977.82
2018-06-01T11:40:05.960Z,977.82
2018-06-01T11:41:05.967Z,977.82
2018-06-01T11:42:05.718Z,977.94
2018-06-01T11:43:05.452Z,977.82
2018-06-01T11:44:05.220Z,977.85
2018-06-01T11:45:05.848Z,977.76
2018-06-01T11:46:05.730Z,977.79
2018-06-01T11:47:05.412Z,977.68
2018-06-01T11:48:10.619Z,977.76
2018-06-01T11:49:05.992Z,977.73
2018-06-01T11:50:05.474Z,977.67
2018-06-01T11:51:05.844Z,977.67
2018-06-01T11:52:05.490Z,977.70
2018-06-01T11:53:05.492Z,977.67
2018-06-01T11:54:05.380Z,977.79
2018-06-01T11:55:05.942Z,977.70
2018-06-01T11:56:05.077Z,977.85
2018-06-01T11:57:05.705Z,977.59
2018-06-01T11:58:05.916Z,977.73
2018-06-01T11:59:05.507Z,977.62
2018-06-01T12:00:06.172Z,977.73
2018-06-01T12:01:10.054Z,977.73
2018-06-01T12:02:05.250Z,977.73
2018-06-01T12:03:05.560Z,977.59
2018-06-01T12:04:05.669Z,977.67
2018-06-01T12:05:05.714Z,977.72
2018-06-01T12:06:05.978Z,977.72
2018-06-01T12:07:06.681Z,977.66
2018-06-01T12:08:05.411Z,977.81
2018-06-01T12:09:05.748Z,977.72
2018-06-01T12:10:05.073Z,977.61
2018-06-01T12:11:10.182Z,977.71
2018-06-01T12:12:05.340Z,977.68
2018-06-01T12:13:05.483Z,977.74
2018-06-01T12:14:05.799Z,977.71
2018-06-01T12:15:05.872Z,977.74
2018-06-01T12:16:05.068Z,977.65
2018-06-01T12:17:10.808Z,977.65
2018-06-01T12:18:05.715Z,977.68
2018-06-01T12:19:05.433Z,977.60
2018-06-01T12:20:05.123Z,977.68
2018-06-01T12:21:05.353Z,977.57
2018-06-01T12:22:05.491Z,977.57
2018-06-01T12:23:05.720Z,977.57
2018-06-01T12:24:05.678Z,977.48
2018-06-01T12:25:06.057Z,977.54
2018-06-01T12:26:05.801Z,977.60
2018-06-01T12:27:06.033Z,977.45
2018-06-01T12:28:05.035Z,977.54